Time;durP1;ratioP1;P1;durP2;ratioP2;P2;SDS_P1;SDS_P2;PMS_P1;PMS_P2;Temp;Humidity;BMP_temperature;BMP_pressure;BME280_temperature;BME280_humidity;BME280_pressure;Samples;Min_cycle;Max_cycle;Signal;HPM_P1;HPM_P2
2022/06/15 00:07:00;;;;;;;1.30;1.00;;;;;;;18.11;73.78;101778.91;20880340;28;20037;-77
2022/06/15 00:17:02;;;;;;;1.98;1.00;;;;;;;18.08;73.70;101762.13;20881927;28;20056;-77
2022/06/15 00:27:04;;;;;;;1.08;0.80;;;;;;;18.15;73.58;101757.13;20889507;28;20056;-77
2022/06/15 00:37:07;;;;;;;1.25;0.93;;;;;;;18.19;73.56;101772.09;20882941;28;20436;-77
2022/06/15 00:47:22;;;;;;;1.25;1.08;;;;;;;18.18;73.55;101771.22;20875027;28;20057;-77
2022/06/15 00:57:26;;;;;;;1.35;0.93;;;;;;;18.08;73.53;101748.66;20890600;28;20072;-77
2022/06/15 01:07:47;;;;;;;0.83;0.83;;;;;;;18.17;73.45;101760.56;20820047;28;20061;-77
2022/06/15 01:18:01;;;;;;;1.92;1.30;;;;;;;18.16;73.41;101761.56;20892758;28;20436;-77
2022/06/15 01:28:36;;;;;;;0.88;0.80;;;;;;;18.15;73.38;101765.22;20922371;28;20054;-78
2022/06/15 01:38:40;;;;;;;0.98;0.93;;;;;;;18.15;73.36;101757.13;20804346;28;20402;-77
2022/06/15 01:48:45;;;;;;;0.88;0.82;;;;;;;18.14;73.13;101753.56;20883836;28;20037;-77
2022/06/15 01:58:51;;;;;;;1.23;1.00;;;;;;;18.07;72.99;101737.00;20869687;28;20045;-77
2022/06/15 02:09:14;;;;;;;0.98;0.90;;;;;;;18.14;73.07;101744.63;20868532;28;20095;-78
2022/06/15 02:19:24;;;;;;;1.52;1.02;;;;;;;18.13;72.74;101737.53;20884614;28;20041;-78
2022/06/15 02:29:27;;;;;;;1.67;1.10;;;;;;;17.99;72.87;101712.44;20835257;28;20099;-78
2022/06/15 02:39:29;;;;;;;1.27;1.00;;;;;;;18.10;72.79;101725.97;20799819;28;20041;-77
2022/06/15 02:49:32;;;;;;;0.70;0.70;;;;;;;18.04;72.69;101731.84;20882841;28;20068;-77
2022/06/15 02:59:37;;;;;;;1.40;0.88;;;;;;;18.00;72.59;101699.84;20881865;28;20489;-77
2022/06/15 03:09:40;;;;;;;1.20;1.00;;;;;;;18.09;72.52;101713.50;20913625;28;20037;-78
2022/06/15 03:19:43;;;;;;;0.80;0.80;;;;;;;18.08;72.34;101714.47;20868561;28;20044;-77
2022/06/15 03:29:47;;;;;;;1.00;0.90;;;;;;;18.05;72.30;101706.63;20820940;28;20122;-78
2022/06/15 03:39:50;;;;;;;0.82;0.77;;;;;;;18.07;72.21;101693.03;20824584;28;20041;-77
2022/06/15 03:49:54;;;;;;;0.93;0.73;;;;;;;18.07;71.99;101704.66;20832778;28;20049;-78
2022/06/15 03:59:56;;;;;;;1.75;0.85;;;;;;;18.07;71.95;101701.97;20877372;28;20056;-77
2022/06/15 04:10:16;;;;;;;1.30;1.00;;;;;;;18.02;71.86;101698.78;20813991;28;20049;-78
2022/06/15 04:20:32;;;;;;;0.80;0.77;;;;;;;18.06;71.74;101708.34;20850815;28;20460;-78
2022/06/15 04:30:39;;;;;;;0.77;0.77;;;;;;;18.05;71.75;101712.00;20838162;28;20043;-78
2022/06/15 04:40:42;;;;;;;1.02;0.90;;;;;;;18.00;71.51;101697.16;20872865;28;20164;-77
2022/06/15 04:50:44;;;;;;;0.70;0.70;;;;;;;18.04;71.56;101710.28;20833963;28;20069;-77
2022/06/15 05:00:47;;;;;;;0.93;0.70;;;;;;;17.99;71.74;101709.75;20780811;28;20056;-78
2022/06/15 05:10:51;;;;;;;1.75;0.82;;;;;;;17.89;72.65;101700.66;20799393;28;20041;-78
2022/06/15 05:20:53;;;;;;;1.42;0.82;;;;;;;18.13;74.42;101729.44;20805359;28;20060;-77
2022/06/15 05:31:02;;;;;;;;;;;;;;;18.16;76.24;101734.59;20774142;28;20394;-77
2022/06/15 05:41:07;;;;;;;2.78;1.00;;;;;;;18.14;76.89;101731.16;20800667;28;19964;-77
2022/06/15 05:51:09;;;;;;;3.42;1.20;;;;;;;18.13;76.86;101724.06;20846497;28;20056;-77
2022/06/15 06:01:32;;;;;;;1.83;1.00;;;;;;;18.11;77.01;101727.69;20844563;28;20497;-77
2022/06/15 06:11:33;;;;;;;4.47;1.15;;;;;;;18.11;76.77;101713.38;20781822;28;20510;-77
2022/06/15 06:21:35;;;;;;;2.58;1.30;;;;;;;18.10;76.73;101717.91;20840389;28;20064;-77
2022/06/15 06:31:36;;;;;;;2.70;1.00;;;;;;;18.09;76.83;101702.72;20799864;28;20050;-77
2022/06/15 06:41:38;;;;;;;1.60;1.02;;;;;;;18.09;76.61;101713.50;20768642;28;20052;-78
2022/06/15 06:51:40;;;;;;;4.25;1.20;;;;;;;18.10;76.49;101715.19;20766382;28;20064;-78
2022/06/15 07:01:44;;;;;;;2.47;1.20;;;;;;;18.10;76.50;101742.16;20816020;28;20107;-78
2022/06/15 07:11:46;;;;;;;2.83;1.03;;;;;;;18.12;76.31;101739.34;20815716;28;20489;-78
2022/06/15 07:21:48;;;;;;;1.00;0.80;;;;;;;18.21;75.79;101743.19;20791523;28;20083;-78
2022/06/15 07:31:52;;;;;;;2.55;1.35;;;;;;;18.27;75.47;101751.63;20853736;28;20523;-78
2022/06/15 07:41:55;;;;;;;1.03;0.80;;;;;;;18.26;75.04;101724.81;20883470;28;20054;-78
2022/06/15 07:52:02;;;;;;;2.30;0.90;;;;;;;18.48;74.48;101752.78;20858577;28;20046;-78
2022/06/15 08:02:04;;;;;;;2.33;1.20;;;;;;;18.53;74.01;101758.69;20847698;28;20057;-78
2022/06/15 08:12:12;;;;;;;1.90;0.80;;;;;;;18.55;73.74;101767.50;20858115;28;20099;-78
2022/06/15 08:22:16;;;;;;;1.38;0.85;;;;;;;18.44;73.50;101748.63;20858851;28;20053;-78
2022/06/15 08:32:18;;;;;;;2.67;0.90;;;;;;;18.33;73.30;101725.19;20780440;28;20045;-79
2022/06/15 08:42:42;;;;;;;1.25;0.70;;;;;;;18.54;73.56;101750.50;20777899;28;20068;-79
2022/06/15 08:52:46;;;;;;;3.30;0.90;;;;;;;18.34;73.38;101722.38;20788404;28;20493;-77
2022/06/15 09:02:54;;;;;;;2.17;0.98;;;;;;;18.52;73.78;101749.75;20794929;28;20060;-77
2022/06/15 09:13:07;;;;;;;2.97;0.75;;;;;;;18.51;73.88;101749.84;20801657;28;20057;-77
2022/06/15 09:23:24;;;;;;;2.00;0.90;;;;;;;18.37;73.86;101732.94;20859982;28;20041;-77
2022/06/15 09:33:32;;;;;;;1.50;0.65;;;;;;;18.34;73.97;101726.91;20795413;28;20102;-78
2022/06/15 09:43:42;;;;;;;2.00;1.00;;;;;;;18.50;73.79;101749.00;20783115;28;20049;-78
2022/06/15 09:53:55;;;;;;;1.42;0.90;;;;;;;18.26;73.78;101714.88;20805764;28;20049;-78
2022/06/15 10:03:58;;;;;;;1.75;0.80;;;;;;;18.42;73.82;101724.50;20856319;28;20052;-78
2022/06/15 10:14:29;;;;;;;2.63;0.85;;;;;;;18.46;73.73;101730.50;20776171;28;20053;-78
2022/06/15 10:24:36;;;;;;;1.55;0.93;;;;;;;18.47;73.74;101725.00;20839346;28;20102;-79
2022/06/15 10:34:47;;;;;;;1.42;0.80;;;;;;;18.47;73.54;101713.34;20760322;28;20050;-78
2022/06/15 10:44:55;;;;;;;0.85;0.77;;;;;;;18.45;73.53;101718.84;20772399;28;20437;-78
2022/06/15 11:05:52;;;;;;;1.13;0.80;;;;;;;18.46;72.85;101703.53;20761741;28;20046;-77
2022/06/15 11:36:51;;;;;;;1.33;0.77;;;;;;;18.48;72.84;101693.47;20775684;28;20056;-78
2022/06/15 11:47:29;;;;;;;2.25;0.88;;;;;;;18.50;73.03;101691.53;20755495;28;20127;-78
2022/06/15 11:57:46;;;;;;;1.35;0.95;;;;;;;18.50;73.10;101691.53;20751551;28;20077;-78
2022/06/15 12:08:12;;;;;;;1.20;0.85;;;;;;;18.49;73.03;101687.09;20765407;28;20117;-77
2022/06/15 12:18:28;;;;;;;1.05;0.88;;;;;;;18.50;72.94;101676.22;20758165;28;20057;-77
2022/06/15 12:29:07;;;;;;;1.70;0.95;;;;;;;18.51;72.91;101680.63;20792658;28;20049;-77
2022/06/15 12:39:08;;;;;;;3.40;1.08;;;;;;;18.51;73.06;101677.06;20774643;28;20042;-77
2022/06/15 12:49:25;;;;;;;2.30;0.77;;;;;;;18.51;72.87;101677.94;20774693;28;20498;-78
2022/06/15 12:59:36;;;;;;;1.10;0.80;;;;;;;18.50;73.03;101680.72;20778676;28;20054;-76
2022/06/15 13:09:37;;;;;;;0.90;0.70;;;;;;;18.46;73.11;101680.13;20763596;28;20053;-77
2022/06/15 13:19:44;;;;;;;0.75;0.70;;;;;;;18.43;73.27;101666.03;20791448;28;20542;-77
2022/06/15 13:30:09;;;;;;;1.08;0.73;;;;;;;18.39;73.43;101673.50;20778770;28;20064;-77
2022/06/15 13:40:14;;;;;;;0.88;0.88;;;;;;;18.36;73.63;101663.81;20777512;28;20057;-77
2022/06/15 13:50:16;;;;;;;0.80;0.70;;;;;;;18.35;73.73;101670.19;20773795;28;20050;-76
2022/06/15 14:00:22;;;;;;;0.80;0.80;;;;;;;18.29;73.82;101670.69;20802606;28;20049;-78
2022/06/15 14:10:38;;;;;;;2.25;0.80;;;;;;;18.32;73.84;101678.53;20784099;28;20045;-77
2022/06/15 14:20:46;;;;;;;1.30;0.80;;;;;;;18.31;73.76;101671.41;20840548;28;20042;-78
2022/06/15 14:31:01;;;;;;;1.35;0.70;;;;;;;18.32;73.97;101653.38;20826647;28;20053;-76
2022/06/15 14:41:19;;;;;;;0.73;0.70;;;;;;;18.32;73.98;101673.13;20845272;28;20070;-77
2022/06/15 14:51:24;;;;;;;1.48;0.60;;;;;;;18.32;73.90;101661.47;20834289;28;20693;-77
2022/06/15 15:01:26;;;;;;;1.47;1.00;;;;;;;18.25;73.63;101666.50;20796721;28;20077;-77
2022/06/15 15:11:38;;;;;;;0.88;0.88;;;;;;;18.35;73.52;101658.56;20854166;28;20069;-78
2022/06/15 15:21:44;;;;;;;0.90;0.82;;;;;;;18.37;73.22;101649.34;20806130;28;20056;-77
2022/06/15 15:42:09;;;;;;;1.92;0.90;;;;;;;18.38;73.38;101628.66;20780056;28;20049;-77
2022/06/15 15:52:15;;;;;;;1.30;1.00;;;;;;;18.41;73.19;101637.34;20850943;28;20061;-77
2022/06/15 16:02:23;;;;;;;1.00;0.93;;;;;;;18.38;73.25;101631.38;20789816;28;21936;-77
2022/06/15 16:12:27;;;;;;;2.10;0.90;;;;;;;18.45;73.20;101647.88;20789427;28;20632;-77
2022/06/15 16:22:29;;;;;;;1.67;1.10;;;;;;;18.46;73.34;101650.47;20780676;28;20480;-77
2022/06/15 16:32:31;;;;;;;0.82;0.82;;;;;;;18.35;73.27;101608.19;20779796;28;20069;-78
2022/06/15 16:42:33;;;;;;;1.45;0.80;;;;;;;18.47;73.21;101636.00;20805435;28;20065;-77
2022/06/15 16:52:38;;;;;;;1.17;0.95;;;;;;;18.48;73.55;101631.47;20777134;28;20493;-77
2022/06/15 17:02:39;;;;;;;2.58;1.40;;;;;;;18.49;73.63;101623.28;20844881;28;20106;-76
2022/06/15 17:12:44;;;;;;;1.10;1.00;;;;;;;18.51;73.29;101636.59;20854073;28;20075;-77
2022/06/15 17:22:45;;;;;;;1.57;1.10;;;;;;;18.52;73.54;101632.94;20861778;28;20387;-77
2022/06/15 17:32:54;;;;;;;1.73;1.20;;;;;;;18.52;73.37;101627.53;20850913;28;20522;-78
2022/06/15 17:42:55;;;;;;;1.98;1.20;;;;;;;18.51;73.70;101628.53;20858471;28;20057;-77
2022/06/15 17:52:57;;;;;;;3.72;1.50;;;;;;;18.60;79.96;101640.41;20782957;28;20061;-78
2022/06/15 18:02:59;;;;;;;6.60;2.05;;;;;;;18.72;84.39;101649.38;20817458;28;20045;-77
2022/06/15 18:13:00;;;;;;;3.92;1.55;;;;;;;18.58;85.16;101637.88;20814561;28;20065;-78
2022/06/15 18:23:09;;;;;;;3.13;1.80;;;;;;;18.65;85.88;101649.88;20794238;28;20070;-78
2022/06/15 18:33:11;;;;;;;3.55;1.65;;;;;;;18.27;84.84;101613.34;20889406;28;20631;-78
2022/06/15 18:53:33;;;;;;;2.85;1.70;;;;;;;18.48;82.09;101664.69;20927184;28;20045;-78
2022/06/15 19:03:35;;;;;;;2.40;1.50;;;;;;;18.52;80.75;101668.00;20797654;28;20144;-78
2022/06/15 19:13:37;;;;;;;3.60;1.80;;;;;;;18.51;79.80;101671.66;20808033;28;20050;-78
2022/06/15 19:23:39;;;;;;;2.70;1.65;;;;;;;18.48;79.16;101658.44;20863939;28;20041;-78
2022/06/15 19:33:41;;;;;;;3.08;1.73;;;;;;;18.47;78.47;101675.59;20796305;28;20041;-78
2022/06/15 19:43:44;;;;;;;2.28;1.63;;;;;;;18.29;78.07;101648.25;20778688;28;20053;-78
2022/06/15 19:53:46;;;;;;;2.60;1.40;;;;;;;18.45;77.49;101675.72;20801172;28;20407;-78
2022/06/15 20:03:48;;;;;;;3.15;1.60;;;;;;;18.36;77.25;101684.53;20795997;28;20155;-78
2022/06/15 20:13:50;;;;;;;4.80;2.40;;;;;;;18.43;76.82;101693.84;20793726;28;20516;-78
2022/06/15 20:23:53;;;;;;;1.70;1.42;;;;;;;18.41;76.63;101702.06;20796596;28;20096;-78
2022/06/15 20:33:55;;;;;;;3.38;1.50;;;;;;;18.39;76.18;101709.41;20798843;28;20132;-78
2022/06/15 20:44:00;;;;;;;2.58;1.50;;;;;;;18.33;76.10;101715.28;20809736;28;20045;-79
2022/06/15 20:54:03;;;;;;;2.13;1.30;;;;;;;18.37;76.03;101722.16;20810229;28;20121;-78
2022/06/15 21:04:05;;;;;;;1.90;1.38;;;;;;;18.37;75.88;101727.53;20807239;28;20136;-78
2022/06/15 21:24:27;;;;;;;1.40;1.30;;;;;;;18.35;75.61;101731.34;20808764;28;20045;-78
2022/06/15 21:34:29;;;;;;;1.45;1.33;;;;;;;18.17;75.32;101687.81;20807490;28;20057;-78
2022/06/15 21:44:33;;;;;;;1.58;1.38;;;;;;;18.32;75.30;101713.56;20803767;28;20057;-78
2022/06/15 21:54:34;;;;;;;2.35;1.40;;;;;;;18.07;75.16;101693.88;20805449;28;20074;-78
2022/06/15 22:04:37;;;;;;;2.42;1.40;;;;;;;18.24;75.17;101737.56;20800937;28;20512;-78
2022/06/15 22:14:40;;;;;;;1.77;1.52;;;;;;;18.16;75.01;101715.75;20802325;28;20053;-78
2022/06/15 22:24:41;;;;;;;1.52;1.42;;;;;;;18.27;74.95;101743.56;20800675;28;20555;-78
2022/06/15 22:34:43;;;;;;;2.42;1.52;;;;;;;18.28;74.80;101752.50;20801453;28;20045;-78
2022/06/15 22:44:44;;;;;;;1.90;1.48;;;;;;;18.27;74.58;101748.09;20800913;28;20103;-78
2022/06/15 22:54:46;;;;;;;2.35;1.67;;;;;;;18.26;74.58;101743.69;20799236;28;20099;-78
2022/06/15 23:04:48;;;;;;;2.33;1.60;;;;;;;18.13;74.56;101734.84;20800805;28;20099;-78
2022/06/15 23:14:49;;;;;;;2.40;1.40;;;;;;;18.25;74.34;101756.28;20800245;28;20049;-78
2022/06/15 23:24:51;;;;;;;1.63;1.38;;;;;;;18.25;73.96;101744.66;20798531;28;20498;-78
2022/06/15 23:34:53;;;;;;;1.55;1.40;;;;;;;18.01;73.96;101691.66;20799641;28;20049;-79
2022/06/15 23:47:22;;;;;;;2.25;1.35;;;;;;;18.09;73.85;101712.66;20798349;28;20061;-79
2022/06/15 23:55:18;;;;;;;1.50;1.40;;;;;;;18.22;73.79;101734.13;20866290;28;20053;-78
